Time;durP1;ratioP1;P1;durP2;ratioP2;P2;SDS_P1;SDS_P2;PMS_P1;PMS_P2;Temp;Humidity;BMP_temperature;BMP_pressure;BME280_temperature;BME280_humidity;BME280_pressure;Samples;Min_cycle;Max_cycle;Signal;HPM_P1;HPM_P2
2022/10/03 00:00:17;;;;;;;10.90;3.40;;;;;;;12.95;100.00;98376.97;4344272;33;20032;-73
2022/10/03 00:03:42;;;;;;;6.15;2.50;;;;;;;13.19;100.00;98374.34;4344066;33;20063;-73
2022/10/03 00:06:23;;;;;;;8.25;2.72;;;;;;;12.74;100.00;98389.03;4302073;33;20354;-73
2022/10/03 00:09:05;;;;;;;3.33;2.80;;;;;;;12.14;100.00;98344.78;4314855;33;20054;-74
2022/10/03 00:11:40;;;;;;;3.17;2.30;;;;;;;12.69;100.00;98382.56;4314037;33;20102;-73
2022/10/03 00:14:25;;;;;;;5.93;2.67;;;;;;;12.89;100.00;98378.09;4313232;33;20028;-73
2022/10/03 00:17:07;;;;;;;5.25;3.08;;;;;;;12.57;100.00;98386.69;4313258;33;20037;-74
2022/10/03 00:20:12;;;;;;;6.25;2.62;;;;;;;12.65;100.00;98373.41;4314526;33;20041;-73
2022/10/03 00:22:50;;;;;;;4.07;1.95;;;;;;;12.37;100.00;98393.00;4270059;33;20424;-73
2022/10/03 00:25:31;;;;;;;5.20;2.25;;;;;;;12.62;100.00;98335.31;4274446;33;20034;-73
2022/10/03 00:28:13;;;;;;;8.40;1.92;;;;;;;13.24;100.00;98374.34;4284307;33;20037;-73
2022/10/03 00:30:59;;;;;;;3.65;2.25;;;;;;;12.58;100.00;98378.28;4285480;33;20062;-73
2022/10/03 00:33:50;;;;;;;3.92;2.20;;;;;;;13.36;100.00;98365.88;4285046;33;20042;-73
2022/10/03 00:36:33;;;;;;;15.70;2.28;;;;;;;13.30;100.00;98366.97;4292516;33;20071;-74
2022/10/03 00:39:19;;;;;;;9.57;2.33;;;;;;;12.86;100.00;98373.25;4329012;33;20033;-74
2022/10/03 00:42:12;;;;;;;9.10;2.20;;;;;;;13.10;100.00;98370.66;4329029;33;20028;-74
2022/10/03 00:44:44;;;;;;;6.10;1.90;;;;;;;12.78;100.00;98381.94;4328736;33;20032;-74
2022/10/03 00:47:32;;;;;;;6.95;1.85;;;;;;;12.70;100.00;98359.88;4328989;33;20066;-74
2022/10/03 00:50:24;;;;;;;3.95;1.70;;;;;;;12.82;100.00;98356.00;4328587;33;20040;-74
2022/10/03 00:52:56;;;;;;;;;;;;;;;12.21;100.00;98352.56;4323988;33;20044;-74
2022/10/03 00:55:50;;;;;;;9.13;2.70;;;;;;;12.32;100.00;98364.94;4327838;33;19944;-73
2022/10/03 00:58:32;;;;;;;5.40;1.92;;;;;;;12.06;100.00;98312.97;4308486;32;20028;-73
2022/10/03 01:01:20;;;;;;;11.90;2.37;;;;;;;12.22;100.00;98356.91;4375006;32;20042;-73
2022/10/03 01:04:26;;;;;;;4.68;2.85;;;;;;;12.70;100.00;98359.03;4373349;32;20039;-72
2022/10/03 01:07:09;;;;;;;3.45;1.48;;;;;;;12.17;100.00;98362.28;4375117;32;20028;-73
2022/10/03 01:09:45;;;;;;;2.17;1.73;;;;;;;12.50;100.00;98349.97;4342405;33;20547;-73
2022/10/03 01:12:31;;;;;;;12.45;1.85;;;;;;;12.31;100.00;98322.00;4342566;33;20366;-73
2022/10/03 01:15:29;;;;;;;3.87;1.80;;;;;;;12.21;100.00;98298.59;4341731;33;20151;-73
2022/10/03 01:18:29;;;;;;;3.15;2.05;;;;;;;12.55;100.00;98335.66;4341834;33;20036;-73
2022/10/03 01:21:34;;;;;;;4.18;1.87;;;;;;;12.14;100.00;98293.50;4334561;33;20032;-73
2022/10/03 01:24:31;;;;;;;7.15;1.70;;;;;;;12.59;100.00;98331.31;4330263;33;20045;-73
2022/10/03 01:27:02;;;;;;;8.65;1.50;;;;;;;12.47;100.00;98336.25;4343099;33;20031;-73
2022/10/03 01:32:41;;;;;;;4.43;1.77;;;;;;;12.23;100.00;98312.59;4342752;33;20032;-74
2022/10/03 01:35:36;;;;;;;2.92;1.62;;;;;;;12.30;100.00;98307.72;4343019;33;20058;-73
2022/10/03 01:38:27;;;;;;;6.57;1.37;;;;;;;12.67;100.00;98329.91;4283296;33;20057;-73
2022/10/03 01:41:02;;;;;;;6.72;1.73;;;;;;;12.67;100.00;98333.41;4284858;33;20063;-72
2022/10/03 01:43:40;;;;;;;5.55;1.80;;;;;;;12.71;100.00;98345.25;4276676;33;20034;-73
2022/10/03 01:46:27;;;;;;;3.10;1.90;;;;;;;12.70;100.00;98294.22;4270314;33;20056;-72
2022/10/03 01:49:38;;;;;;;7.80;1.92;;;;;;;12.34;100.00;98319.56;4264288;33;20026;-73
2022/10/03 01:52:14;;;;;;;5.05;1.80;;;;;;;12.66;100.00;98331.78;4263403;33;20216;-73
2022/10/03 01:54:57;;;;;;;6.25;2.00;;;;;;;12.33;100.00;98287.44;4270289;33;20059;-73
2022/10/03 01:58:08;;;;;;;10.05;1.73;;;;;;;12.58;100.00;98291.88;4276530;33;20451;-73
2022/10/03 02:00:44;;;;;;;8.85;2.87;;;;;;;12.55;100.00;98335.66;4312111;33;20072;-73
2022/10/03 02:03:37;;;;;;;6.82;2.72;;;;;;;12.34;100.00;98340.34;4312407;33;20228;-73
2022/10/03 02:06:40;;;;;;;4.65;2.08;;;;;;;12.47;100.00;98323.53;4309989;33;20045;-72
2022/10/03 02:09:10;;;;;;;6.32;2.45;;;;;;;12.76;100.00;98319.31;4308769;33;20062;-72
2022/10/03 02:11:51;;;;;;;2.28;1.85;;;;;;;12.67;100.00;98311.81;4313287;33;20029;-73
2022/10/03 02:14:31;;;;;;;5.53;2.47;;;;;;;12.58;100.00;98332.37;4324559;33;20044;-73
2022/10/03 02:17:13;;;;;;;2.37;1.80;;;;;;;12.03;100.00;98235.28;4342699;33;20058;-73
2022/10/03 02:20:06;;;;;;;9.38;2.15;;;;;;;12.76;100.00;98308.50;4342354;33;20062;-73
2022/10/03 02:22:38;;;;;;;10.20;2.10;;;;;;;12.75;100.00;98318.50;4342511;33;20050;-73
2022/10/03 02:25:20;;;;;;;6.25;1.95;;;;;;;12.21;100.00;98336.38;4342707;33;20083;-73
2022/10/03 02:28:01;;;;;;;7.00;1.95;;;;;;;12.54;100.00;98312.44;4342563;33;20156;-73
2022/10/03 02:30:45;;;;;;;8.63;1.83;;;;;;;12.15;100.00;98302.41;4341455;33;20050;-73
2022/10/03 02:33:39;;;;;;;3.67;2.10;;;;;;;12.51;100.00;98329.22;4326665;33;20392;-73
2022/10/03 02:36:42;;;;;;;13.40;2.83;;;;;;;12.50;100.00;98295.19;4332269;33;20061;-73
2022/10/03 02:39:21;;;;;;;7.37;2.40;;;;;;;12.79;100.00;98329.56;4342531;33;20046;-72
2022/10/03 02:42:13;;;;;;;6.37;2.22;;;;;;;12.77;100.00;98342.53;4342695;33;20024;-73
2022/10/03 02:44:49;;;;;;;4.12;2.00;;;;;;;12.48;100.00;98287.34;4342388;33;20037;-73
2022/10/03 02:48:13;;;;;;;15.45;2.40;;;;;;;12.50;100.00;98312.19;4342717;33;20050;-73
2022/10/03 02:50:57;;;;;;;16.85;3.00;;;;;;;12.94;100.00;98342.13;4312887;33;20185;-72
2022/10/03 02:53:51;;;;;;;7.15;2.53;;;;;;;12.93;100.00;98319.72;4313272;33;20445;-73
2022/10/03 02:56:55;;;;;;;7.12;2.45;;;;;;;13.03;100.00;98330.44;4313562;33;20509;-72
2022/10/03 02:59:41;;;;;;;9.95;3.05;;;;;;;12.84;100.00;98332.22;4315836;33;20074;-72
2022/10/03 03:02:32;;;;;;;6.95;2.03;;;;;;;12.98;100.00;98327.78;4315831;33;20581;-73
2022/10/03 03:05:31;;;;;;;6.30;2.42;;;;;;;12.77;100.00;98289.31;4327242;33;20054;-73
2022/10/03 03:08:34;;;;;;;5.30;2.65;;;;;;;12.83;100.00;98338.72;4330305;33;20183;-73
2022/10/03 03:11:31;;;;;;;4.80;2.37;;;;;;;12.66;100.00;98331.00;4330333;33;20033;-73
2022/10/03 03:14:35;;;;;;;13.30;2.62;;;;;;;12.77;100.00;98326.34;4330199;33;20032;-73
2022/10/03 03:17:36;;;;;;;3.33;2.17;;;;;;;12.88;100.00;98330.56;4328494;33;20054;-73
2022/10/03 03:20:30;;;;;;;7.53;2.30;;;;;;;13.23;100.00;98313.25;4314160;32;20140;-73
2022/10/03 03:22:59;;;;;;;4.57;2.15;;;;;;;12.48;100.00;98291.97;4346049;32;20048;-73
2022/10/03 03:25:50;;;;;;;12.32;3.30;;;;;;;12.82;100.00;98283.06;4376553;32;20376;-72
2022/10/03 03:28:40;;;;;;;10.95;3.95;;;;;;;13.16;100.00;98311.97;4376500;32;20043;-73
2022/10/03 03:31:11;;;;;;;5.82;2.40;;;;;;;13.55;100.00;98305.69;4348117;32;20036;-73
2022/10/03 03:33:53;;;;;;;9.13;2.25;;;;;;;13.61;100.00;98335.09;4376319;32;20037;-73
2022/10/03 03:36:35;;;;;;;9.27;2.53;;;;;;;13.01;100.00;98308.31;4376300;32;20049;-73
2022/10/03 03:39:17;;;;;;;4.53;1.75;;;;;;;12.94;100.00;98283.50;4376395;32;20019;-73
2022/10/03 03:42:08;;;;;;;3.20;1.87;;;;;;;12.86;100.00;98276.00;4376606;32;20386;-73
2022/10/03 03:44:54;;;;;;;5.22;2.10;;;;;;;13.26;100.00;98315.38;4343397;33;20347;-73
2022/10/03 03:47:35;;;;;;;5.72;1.55;;;;;;;13.23;100.00;98307.84;4344586;33;20016;-73
2022/10/03 03:50:13;;;;;;;5.87;2.10;;;;;;;12.97;100.00;98304.56;4344346;33;20402;-73
2022/10/03 03:52:56;;;;;;;8.50;2.78;;;;;;;12.90;100.00;98317.59;4343844;33;20151;-73
2022/10/03 03:55:49;;;;;;;13.35;2.28;;;;;;;12.79;100.00;98324.94;4342885;33;20106;-73
2022/10/03 03:58:32;;;;;;;5.90;1.80;;;;;;;12.92;100.00;98307.28;4344117;33;20373;-73
2022/10/03 04:01:17;;;;;;;11.40;2.28;;;;;;;13.04;100.00;98301.53;4344209;33;20028;-73
2022/10/03 04:03:46;;;;;;;11.12;1.98;;;;;;;12.89;100.00;98313.25;4344226;33;20058;-73
2022/10/03 04:06:21;;;;;;;4.25;2.03;;;;;;;12.80;100.00;98309.56;4342180;33;20070;-72
2022/10/03 04:09:12;;;;;;;5.68;2.25;;;;;;;12.91;100.00;98313.81;4344042;33;20021;-72
2022/10/03 04:11:51;;;;;;;5.18;2.70;;;;;;;12.84;100.00;98334.91;4344005;33;20040;-72
2022/10/03 04:14:28;;;;;;;13.02;2.83;;;;;;;12.85;100.00;98279.81;4344133;33;20028;-73
2022/10/03 04:20:18;;;;;;;8.38;2.20;;;;;;;12.43;100.00;98348.66;4358551;32;20044;-73
2022/10/03 04:23:18;;;;;;;13.68;3.50;;;;;;;12.53;100.00;98308.13;4358731;32;20043;-73
2022/10/03 04:25:53;;;;;;;5.93;2.08;;;;;;;12.57;100.00;98306.47;4358209;32;20082;-72
2022/10/03 04:28:33;;;;;;;2.92;1.70;;;;;;;12.31;100.00;98255.34;4358577;32;20042;-72
2022/10/03 04:31:19;;;;;;;7.32;2.03;;;;;;;12.23;100.00;98279.41;4358616;32;20058;-72
2022/10/03 04:34:08;;;;;;;5.25;1.52;;;;;;;12.29;100.00;98322.28;4342648;33;20114;-72
2022/10/03 04:36:57;;;;;;;3.60;1.70;;;;;;;12.41;100.00;98324.66;4343625;33;20066;-73
2022/10/03 04:39:26;;;;;;;5.32;1.50;;;;;;;12.42;100.00;98276.88;4343820;33;20040;-73
2022/10/03 04:42:20;;;;;;;6.32;1.58;;;;;;;12.71;100.00;98291.22;4343720;33;20048;-73
2022/10/03 04:45:07;;;;;;;8.15;1.77;;;;;;;12.91;100.00;98316.50;4314457;33;20058;-73
2022/10/03 04:47:45;;;;;;;7.80;2.03;;;;;;;12.72;100.00;98298.25;4309770;33;20055;-73
2022/10/03 04:50:12;;;;;;;8.23;1.92;;;;;;;13.08;100.00;98327.72;4314263;33;20467;-73
2022/10/03 04:52:50;;;;;;;12.95;2.28;;;;;;;12.83;100.00;98317.91;4314043;33;20036;-73
2022/10/03 04:55:32;;;;;;;5.18;1.92;;;;;;;12.84;100.00;98343.84;4314236;33;20041;-73
2022/10/03 04:58:14;;;;;;;2.25;1.73;;;;;;;12.69;100.00;98320.44;4314073;33;20033;-72
2022/10/03 05:00:53;;;;;;;4.40;2.47;;;;;;;12.72;100.00;98324.47;4314383;33;20050;-72
2022/10/03 05:03:27;;;;;;;6.05;2.35;;;;;;;12.62;100.00;98325.34;4314082;33;20395;-72
2022/10/03 05:05:59;;;;;;;9.63;2.45;;;;;;;12.56;100.00;98329.16;4312098;33;20028;-72
2022/10/03 05:08:32;;;;;;;;;;;;;;;12.75;100.00;98317.69;4314291;33;20033;-72
2022/10/03 05:11:17;;;;;;;5.85;1.75;;;;;;;12.74;100.00;98316.09;4314070;33;20076;-72
2022/10/03 05:14:12;;;;;;;11.10;1.87;;;;;;;12.75;100.00;98323.09;4313835;33;20036;-72
2022/10/03 05:16:56;;;;;;;7.93;2.58;;;;;;;12.03;100.00;98275.75;4326096;33;20044;-72
2022/10/03 05:20:04;;;;;;;6.80;2.25;;;;;;;12.57;100.00;98284.06;4327733;33;20207;-72
2022/10/03 05:22:55;;;;;;;5.20;2.30;;;;;;;12.53;100.00;98305.41;4328248;33;20053;-72
2022/10/03 05:25:43;;;;;;;6.10;2.25;;;;;;;12.65;100.00;98327.50;4327064;33;20413;-72
2022/10/03 05:28:49;;;;;;;5.25;2.20;;;;;;;12.63;100.00;98312.66;4328066;33;20044;-72
2022/10/03 05:31:27;;;;;;;9.00;1.98;;;;;;;12.81;100.00;98295.78;4328227;33;20374;-72
2022/10/03 05:34:11;;;;;;;9.52;1.87;;;;;;;12.74;100.00;98297.19;4328599;33;20036;-72
2022/10/03 05:37:06;;;;;;;8.25;2.12;;;;;;;12.29;100.00;98268.31;4338169;32;20024;-72
2022/10/03 05:39:44;;;;;;;5.60;2.33;;;;;;;12.77;100.00;98299.31;4357481;32;20384;-72
2022/10/03 05:42:48;;;;;;;13.18;2.15;;;;;;;13.04;100.00;98298.81;4357456;32;20345;-72
2022/10/03 05:45:46;;;;;;;3.83;1.58;;;;;;;12.63;100.00;98289.13;4352451;32;20163;-72
2022/10/03 05:48:49;;;;;;;6.18;1.83;;;;;;;12.42;100.00;98287.69;4357413;32;20073;-72
2022/10/03 05:51:31;;;;;;;4.35;1.65;;;;;;;12.95;100.00;98316.72;4357590;32;20075;-72
2022/10/03 05:54:03;;;;;;;;;;;;;;;12.85;100.00;98313.00;4339317;33;20028;-73
2022/10/03 05:56:56;;;;;;;6.20;1.50;;;;;;;12.96;100.00;98300.25;4343930;33;19949;-72
2022/10/03 05:59:44;;;;;;;2.35;1.30;;;;;;;12.74;100.00;98326.91;4359583;33;20046;-73
2022/10/03 06:02:41;;;;;;;7.90;1.70;;;;;;;12.61;100.00;98307.53;4359262;33;20013;-74
2022/10/03 06:05:29;;;;;;;9.07;1.70;;;;;;;12.85;100.00;98301.41;4359398;33;20048;-73
2022/10/03 06:08:18;;;;;;;2.40;1.27;;;;;;;12.82;100.00;98312.78;4358955;33;20381;-73
2022/10/03 06:11:12;;;;;;;3.50;1.52;;;;;;;12.75;100.00;98323.91;4359338;33;20083;-73
2022/10/03 06:13:54;;;;;;;5.70;1.58;;;;;;;12.88;100.00;98311.66;4357635;33;20381;-73
2022/10/03 06:16:46;;;;;;;6.32;1.52;;;;;;;12.94;100.00;98315.94;4342723;33;20065;-74
2022/10/03 06:19:26;;;;;;;5.53;1.73;;;;;;;13.06;100.00;98319.06;4309543;33;20446;-73
2022/10/03 06:22:30;;;;;;;9.30;1.77;;;;;;;12.93;100.00;98303.50;4341129;33;20071;-73
2022/10/03 06:25:24;;;;;;;9.45;2.00;;;;;;;12.82;100.00;98318.19;4342703;33;20028;-72
2022/10/03 06:28:32;;;;;;;4.55;1.62;;;;;;;12.88;100.00;98317.06;4342990;33;20035;-73
2022/10/03 06:31:27;;;;;;;6.30;1.35;;;;;;;13.11;100.00;98320.12;4314367;33;20033;-72
2022/10/03 06:34:18;;;;;;;6.45;2.08;;;;;;;12.98;100.00;98316.97;4315961;33;20468;-73
2022/10/03 06:36:56;;;;;;;4.87;1.60;;;;;;;13.00;100.00;98312.09;4314637;33;20390;-72
2022/10/03 06:39:41;;;;;;;3.05;1.50;;;;;;;12.74;100.00;98299.88;4315995;33;20029;-73
2022/10/03 06:42:25;;;;;;;5.70;2.03;;;;;;;13.16;100.00;98320.06;4315929;33;20036;-72
2022/10/03 06:45:22;;;;;;;3.25;1.70;;;;;;;12.99;100.00;98299.69;4316123;33;20036;-73
2022/10/03 06:48:26;;;;;;;9.20;1.98;;;;;;;13.20;100.00;98323.81;4325566;33;20054;-73
2022/10/03 06:51:37;;;;;;;5.35;1.48;;;;;;;13.34;100.00;98308.59;4331394;33;20145;-72
2022/10/03 06:54:21;;;;;;;4.57;1.15;;;;;;;12.90;100.00;98266.25;4331102;33;20059;-73
2022/10/03 06:57:18;;;;;;;5.43;1.58;;;;;;;13.24;100.00;98324.84;4330667;33;20028;-73
2022/10/03 07:00:00;;;;;;;9.45;1.95;;;;;;;13.05;100.00;98295.03;4330431;33;20029;-73
2022/10/03 07:02:50;;;;;;;5.37;1.75;;;;;;;13.43;100.00;98339.31;4355623;32;20047;-73
2022/10/03 07:05:40;;;;;;;5.57;1.75;;;;;;;13.20;100.00;98318.41;4362254;32;20073;-74
2022/10/03 07:08:21;;;;;;;2.33;1.50;;;;;;;13.15;100.00;98326.59;4361872;32;20051;-73
2022/10/03 07:10:56;;;;;;;5.62;1.52;;;;;;;13.16;100.00;98363.31;4361717;32;20016;-73
2022/10/03 07:13:44;;;;;;;3.28;1.12;;;;;;;12.79;100.00;98299.84;4372565;32;20329;-74
2022/10/03 07:16:32;;;;;;;10.52;2.15;;;;;;;13.32;100.00;98335.06;4376302;32;20040;-74
2022/10/03 07:19:19;;;;;;;3.67;2.17;;;;;;;12.62;100.00;98292.94;4384983;32;20059;-74
2022/10/03 07:22:23;;;;;;;4.43;1.75;;;;;;;13.02;100.00;98334.25;4374035;32;20086;-73
2022/10/03 07:25:08;;;;;;;8.00;1.90;;;;;;;12.96;100.00;98332.66;4374247;32;20109;-74
2022/10/03 07:27:56;;;;;;;5.78;1.67;;;;;;;13.00;100.00;98324.78;4344944;33;20051;-73
2022/10/03 07:30:24;;;;;;;9.18;1.65;;;;;;;13.08;100.00;98338.53;4344303;33;20048;-74
2022/10/03 07:33:19;;;;;;;10.00;1.85;;;;;;;13.01;100.00;98343.44;4343153;33;20062;-74
2022/10/03 07:39:50;;;;;;;4.68;2.33;;;;;;;12.89;100.00;98333.00;4359183;32;20106;-73
2022/10/03 07:42:31;;;;;;;5.55;1.85;;;;;;;12.61;100.00;98339.94;4334476;32;20433;-74
2022/10/03 07:45:29;;;;;;;5.03;1.77;;;;;;;12.66;100.00;98331.78;4314324;33;20028;-74
2022/10/03 07:48:16;;;;;;;3.75;1.80;;;;;;;12.59;100.00;98358.31;4305413;33;20468;-73
2022/10/03 07:50:54;;;;;;;3.37;1.30;;;;;;;12.57;100.00;98333.47;4314963;33;20029;-73
2022/10/03 07:53:53;;;;;;;6.70;1.52;;;;;;;12.71;100.00;98345.25;4310516;33;20426;-73
2022/10/03 07:56:47;;;;;;;11.68;2.25;;;;;;;12.66;100.00;98353.41;4315116;33;20136;-74
2022/10/03 07:59:58;;;;;;;7.85;2.62;;;;;;;12.45;100.00;98346.50;4325653;33;20044;-74
2022/10/03 08:03:21;;;;;;;6.87;2.30;;;;;;;12.51;100.00;98367.00;4302549;33;20070;-73
2022/10/03 08:06:07;;;;;;;5.87;2.60;;;;;;;12.61;100.00;98360.75;4299092;33;20074;-73
2022/10/03 08:08:55;;;;;;;13.73;2.12;;;;;;;12.56;100.00;98363.44;4327584;33;20099;-73
2022/10/03 08:11:53;;;;;;;5.55;2.20;;;;;;;12.67;100.00;98379.31;4328179;33;20179;-73
2022/10/03 08:14:38;;;;;;;6.35;1.85;;;;;;;12.75;100.00;98329.31;4280584;33;20208;-72
2022/10/03 08:17:23;;;;;;;9.65;1.98;;;;;;;12.21;100.00;98347.16;4329230;33;20375;-72
2022/10/03 08:20:22;;;;;;;9.52;2.95;;;;;;;12.59;100.00;98374.53;4327647;33;20079;-73
2022/10/03 08:23:15;;;;;;;4.78;1.73;;;;;;;12.59;100.00;98341.28;4330940;33;20086;-72
2022/10/03 08:26:19;;;;;;;4.80;2.78;;;;;;;12.57;100.00;98349.66;4344793;33;20044;-72
2022/10/03 08:29:25;;;;;;;6.85;1.80;;;;;;;12.73;100.00;98315.25;4344142;33;20083;-73
2022/10/03 08:32:06;;;;;;;3.55;1.90;;;;;;;13.19;100.00;98360.03;4307127;33;20379;-72
2022/10/03 08:34:38;;;;;;;6.00;1.60;;;;;;;12.86;100.00;98340.84;4356317;32;20036;-72
2022/10/03 08:37:42;;;;;;;6.95;1.62;;;;;;;13.19;100.00;98387.06;4342846;33;20062;-73
2022/10/03 08:40:28;;;;;;;4.82;1.50;;;;;;;13.31;100.00;98363.19;4342537;33;20040;-72
2022/10/03 08:43:24;;;;;;;6.97;2.40;;;;;;;13.31;100.00;98395.63;4343369;33;20462;-73
2022/10/03 08:46:09;;;;;;;4.10;1.85;;;;;;;13.17;100.00;98324.41;4340203;33;20070;-73
2022/10/03 08:49:05;;;;;;;6.57;2.60;;;;;;;13.74;100.00;98357.94;4343483;33;20016;-73
2022/10/03 08:52:01;;;;;;;3.47;1.60;;;;;;;13.52;100.00;98384.69;4343504;33;20036;-73
2022/10/03 08:54:58;;;;;;;4.00;1.60;;;;;;;13.36;100.00;98346.94;4342952;33;20062;-72
2022/10/03 08:57:42;;;;;;;4.55;1.80;;;;;;;13.53;100.00;98397.09;4327241;33;20036;-73
2022/10/03 09:00:23;;;;;;;8.73;1.87;;;;;;;13.29;100.00;98357.28;4328493;33;20440;-74
2022/10/03 09:03:11;;;;;;;4.78;1.83;;;;;;;13.23;100.00;98398.94;4328535;33;20058;-73
2022/10/03 09:05:52;;;;;;;3.25;1.73;;;;;;;13.43;100.00;98409.63;4328228;33;20425;-72
2022/10/03 09:09:00;;;;;;;3.72;1.60;;;;;;;13.75;100.00;98416.37;4328358;33;20102;-73
2022/10/03 09:11:53;;;;;;;4.70;1.73;;;;;;;13.61;100.00;98350.53;4297665;33;20036;-73
2022/10/03 09:15:06;;;;;;;5.37;1.92;;;;;;;14.14;100.00;98399.19;4299076;33;20041;-74
2022/10/03 09:17:50;;;;;;;6.05;2.08;;;;;;;14.27;100.00;98403.09;4299250;33;20059;-73
2022/10/03 09:20:38;;;;;;;3.67;1.50;;;;;;;14.19;100.00;98386.69;4299328;33;20030;-74
2022/10/03 09:23:39;;;;;;;4.72;1.58;;;;;;;14.38;100.00;98411.91;4297821;33;20041;-74
2022/10/03 09:26:11;;;;;;;2.75;1.40;;;;;;;14.01;100.00;98418.81;4299122;33;20100;-74
2022/10/03 09:28:59;;;;;;;5.40;1.90;;;;;;;14.29;100.00;98392.75;4290630;33;20169;-73
2022/10/03 09:31:40;;;;;;;4.85;1.90;;;;;;;14.47;100.00;98431.00;4300889;33;20087;-73
2022/10/03 09:34:23;;;;;;;7.90;2.15;;;;;;;14.73;100.00;98407.16;4313614;33;20025;-73
2022/10/03 09:37:28;;;;;;;2.22;1.60;;;;;;;14.28;100.00;98393.06;4313347;33;20051;-73
2022/10/03 09:40:12;;;;;;;5.85;1.52;;;;;;;14.70;100.00;98413.16;4313711;33;20435;-72
2022/10/03 09:42:56;;;;;;;3.25;1.90;;;;;;;14.48;100.00;98363.00;4313458;33;20336;-73
2022/10/03 09:45:46;;;;;;;9.88;3.28;;;;;;;14.85;100.00;98404.81;4313375;33;20077;-72
2022/10/03 09:48:40;;;;;;;3.12;2.10;;;;;;;14.67;100.00;98413.72;4350035;32;20035;-73
2022/10/03 09:51:12;;;;;;;3.25;1.52;;;;;;;14.94;100.00;98415.00;4357531;32;20052;-72
2022/10/03 09:54:09;;;;;;;3.53;2.12;;;;;;;14.76;100.00;98422.00;4358418;33;20040;-74
2022/10/03 09:57:13;;;;;;;2.97;2.10;;;;;;;15.01;100.00;98443.34;4327863;33;20095;-73
2022/10/03 10:00:14;;;;;;;4.45;1.65;;;;;;;15.05;100.00;98430.81;4327826;33;20058;-73
2022/10/03 10:03:05;;;;;;;3.37;1.98;;;;;;;14.95;100.00;98420.12;4328087;33;20036;-73
2022/10/03 10:05:57;;;;;;;2.97;1.87;;;;;;;15.04;100.00;98391.22;4330218;33;20328;-73
2022/10/03 10:08:47;;;;;;;2.05;1.80;;;;;;;15.07;100.00;98411.53;4329837;33;20076;-73
2022/10/03 10:11:51;;;;;;;5.53;2.10;;;;;;;15.13;100.00;98421.22;4330826;33;20470;-73
2022/10/03 10:14:52;;;;;;;2.37;2.03;;;;;;;14.76;100.00;98417.41;4306197;33;20047;-72
2022/10/03 10:17:39;;;;;;;4.75;2.80;;;;;;;15.08;100.00;98424.78;4330934;33;20071;-72
2022/10/03 10:20:24;;;;;;;4.82;2.53;;;;;;;14.94;100.00;98456.44;4300268;33;20084;-73
2022/10/03 10:23:11;;;;;;;3.37;2.05;;;;;;;15.17;100.00;98449.34;4316202;33;20024;-72
2022/10/03 10:25:50;;;;;;;3.62;1.77;;;;;;;15.32;100.00;98458.38;4316042;33;20167;-74
2022/10/03 10:28:33;;;;;;;2.47;2.22;;;;;;;15.24;100.00;98449.78;4325004;33;20032;-72
2022/10/03 10:31:24;;;;;;;2.03;1.85;;;;;;;15.45;100.00;98465.75;4330690;33;20035;-73
2022/10/03 10:34:10;;;;;;;3.95;1.92;;;;;;;15.48;100.00;98446.16;4330303;33;20066;-73
2022/10/03 10:36:56;;;;;;;7.60;2.83;;;;;;;15.52;100.00;98416.53;4330345;33;20044;-72
2022/10/03 10:39:43;;;;;;;6.20;2.10;;;;;;;15.57;100.00;98457.97;4314450;33;20017;-73
2022/10/03 10:43:05;;;;;;;3.35;2.12;;;;;;;15.41;100.00;98454.69;4315649;33;20055;-72
2022/10/03 10:45:44;;;;;;;2.12;1.75;;;;;;;15.59;100.00;98474.75;4315842;33;20063;-72
2022/10/03 10:48:34;;;;;;;4.53;1.73;;;;;;;15.35;100.00;98428.72;4315625;33;20032;-70
2022/10/03 10:51:43;;;;;;;6.18;2.45;;;;;;;15.67;100.00;98456.16;4317823;33;20032;-71
2022/10/03 10:54:48;;;;;;;2.75;2.33;;;;;;;16.05;100.00;98461.50;4347133;33;20053;-71
2022/10/03 10:57:27;;;;;;;3.90;1.95;;;;;;;16.68;100.00;98489.91;4359721;32;20083;-72
2022/10/03 11:00:16;;;;;;;1.83;1.55;;;;;;;16.37;100.00;98440.78;4359616;32;20027;-71
2022/10/03 11:03:07;;;;;;;3.10;2.33;;;;;;;16.63;100.00;98466.34;4358716;32;20050;-72
2022/10/03 11:05:58;;;;;;;2.92;2.72;;;;;;;16.31;100.00;98468.06;4361905;32;20051;-71
2022/10/03 11:08:53;;;;;;;5.40;2.83;;;;;;;15.79;100.00;98483.66;4359210;32;20036;-72
2022/10/03 11:11:57;;;;;;;7.90;2.53;;;;;;;15.78;100.00;98427.78;4372578;32;20150;-72
2022/10/03 11:15:16;;;;;;;4.40;2.47;;;;;;;16.07;100.00;98481.03;4360883;32;20032;-72
2022/10/03 11:17:58;;;;;;;3.60;2.83;;;;;;;15.86;100.00;98456.97;4358066;32;20077;-72
2022/10/03 11:20:43;;;;;;;;;;;;;;;16.08;100.00;98444.59;4358729;32;20035;-72
2022/10/03 11:23:32;;;;;;;4.97;2.08;;;;;;;16.46;100.00;98520.50;4359295;32;19949;-72
2022/10/03 11:25:59;;;;;;;2.97;2.25;;;;;;;16.14;100.00;98486.88;4359271;32;20028;-72
2022/10/03 11:28:56;;;;;;;2.17;2.08;;;;;;;16.22;100.00;98497.03;4359324;32;20125;-72
2022/10/03 11:31:41;;;;;;;3.42;2.20;;;;;;;16.10;100.00;98491.28;4344755;33;20167;-73
2022/10/03 11:34:20;;;;;;;5.90;2.75;;;;;;;15.93;100.00;98481.78;4322519;33;20062;-72
2022/10/03 11:37:05;;;;;;;2.80;2.60;;;;;;;16.55;100.00;98496.16;4329467;33;20162;-72
2022/10/03 11:39:42;;;;;;;2.95;2.75;;;;;;;16.56;100.00;98501.31;4329770;33;20034;-73
2022/10/03 11:42:31;;;;;;;14.82;2.50;;;;;;;16.42;100.00;98489.59;4324304;33;20032;-72
2022/10/03 11:45:01;;;;;;;2.85;2.55;;;;;;;16.41;100.00;98490.72;4329266;33;20432;-72
2022/10/03 11:47:44;;;;;;;6.40;3.10;;;;;;;16.23;100.00;98533.97;4328998;33;20033;-73
2022/10/03 11:50:41;;;;;;;2.00;1.87;;;;;;;16.25;100.00;98482.06;4329543;33;20037;-73
2022/10/03 11:53:15;;;;;;;3.47;1.95;;;;;;;16.63;100.00;98504.41;4329194;33;20027;-72
2022/10/03 11:55:52;;;;;;;1.83;1.73;;;;;;;16.61;100.00;98508.53;4329394;33;20425;-72
2022/10/03 11:58:38;;;;;;;2.80;1.98;;;;;;;16.30;100.00;98522.69;4329335;33;20040;-72
2022/10/03 12:02:10;;;;;;;3.25;2.10;;;;;;;16.40;100.00;98510.84;4329079;33;20068;-72
2022/10/03 12:05:18;;;;;;;2.37;2.15;;;;;;;16.56;100.00;98525.75;4318067;33;20101;-72
2022/10/03 12:10:56;;;;;;;2.35;1.80;;;;;;;15.91;100.00;98462.28;4328122;33;20045;-73
2022/10/03 12:13:51;;;;;;;4.28;2.00;;;;;;;16.48;100.00;98518.28;4328922;33;20140;-73
2022/10/03 12:16:31;;;;;;;6.62;1.80;;;;;;;16.13;100.00;98463.50;4327521;33;20374;-73
2022/10/03 12:19:29;;;;;;;2.10;1.73;;;;;;;16.06;100.00;98484.84;4328473;33;20378;-73
2022/10/03 12:22:07;;;;;;;1.95;1.70;;;;;;;16.05;100.00;98534.81;4328996;33;20076;-72
2022/10/03 12:24:41;;;;;;;3.00;2.22;;;;;;;15.97;100.00;98558.84;4328827;33;20050;-72
2022/10/03 12:27:19;;;;;;;5.20;1.85;;;;;;;15.77;100.00;98537.44;4328823;33;20054;-73
2022/10/03 12:30:02;;;;;;;2.97;1.85;;;;;;;16.02;100.00;98528.09;4313181;33;20132;-73
2022/10/03 12:32:48;;;;;;;1.67;1.58;;;;;;;15.69;100.00;98535.38;4285195;33;20417;-73
2022/10/03 12:35:42;;;;;;;4.07;2.28;;;;;;;15.59;100.00;98548.00;4283075;33;20064;-73
2022/10/03 12:38:27;;;;;;;6.47;2.75;;;;;;;15.26;100.00;98520.00;4298685;33;20029;-73
2022/10/03 12:41:24;;;;;;;3.50;2.17;;;;;;;15.69;100.00;98562.53;4299584;33;20029;-73
2022/10/03 12:44:04;;;;;;;4.53;2.35;;;;;;;15.47;100.00;98554.97;4280126;33;20029;-73
2022/10/03 12:46:50;;;;;;;3.58;2.78;;;;;;;15.46;100.00;98543.31;4299418;33;20080;-73
2022/10/03 12:49:40;;;;;;;8.48;2.72;;;;;;;15.73;100.00;98548.06;4299255;33;20033;-74
2022/10/03 12:52:25;;;;;;;2.45;2.25;;;;;;;15.92;100.00;98550.78;4297922;33;20406;-73
2022/10/03 12:55:30;;;;;;;2.08;1.87;;;;;;;16.15;100.00;98569.97;4299551;33;20112;-73
2022/10/03 12:58:38;;;;;;;2.22;1.48;;;;;;;16.49;100.00;98575.03;4299639;33;20057;-74
2022/10/03 13:01:23;;;;;;;1.85;1.60;;;;;;;16.40;100.00;98565.16;4307995;33;20167;-73
2022/10/03 13:03:54;;;;;;;1.20;1.20;;;;;;;15.94;100.00;98567.56;4331816;33;20051;-72
2022/10/03 13:06:32;;;;;;;1.62;1.52;;;;;;;15.85;100.00;98585.63;4341963;33;20028;-72
2022/10/03 13:08:58;;;;;;;2.35;1.52;;;;;;;15.79;100.00;98605.81;4339675;33;20032;-73
2022/10/03 13:11:31;;;;;;;2.75;1.95;;;;;;;15.90;100.00;98566.53;4343357;33;20066;-73
2022/10/03 13:14:29;;;;;;;3.22;1.42;;;;;;;15.89;100.00;98577.69;4343252;33;20062;-70